createdAt,value
2017-02-20T00:00:35.494Z,6.69
2017-02-20T00:01:35.466Z,6.68
2017-02-20T00:02:35.466Z,6.73
2017-02-20T00:03:35.433Z,6.76
2017-02-20T00:04:35.417Z,6.77
2017-02-20T00:05:35.406Z,6.72
2017-02-20T00:06:35.374Z,6.86
2017-02-20T00:07:34.961Z,6.86
2017-02-20T00:08:35.336Z,6.8
2017-02-20T00:09:35.319Z,6.86
2017-02-20T00:10:34.916Z,6.91
2017-02-20T00:11:35.296Z,6.89
2017-02-20T00:12:35.262Z,6.91
2017-02-20T00:13:35.242Z,6.94
2017-02-20T00:14:35.228Z,6.9
2017-02-20T00:15:34.819Z,6.89
2017-02-20T00:16:35.187Z,6.9
2017-02-20T00:17:35.173Z,6.94
2017-02-20T00:18:35.157Z,6.91
2017-02-20T00:19:35.146Z,6.94
2017-02-20T00:20:35.131Z,6.99
2017-02-20T00:21:35.108Z,7.02
2017-02-20T00:22:35.079Z,6.9
2017-02-20T00:23:35.074Z,6.98
2017-02-20T00:24:35.049Z,6.97
2017-02-20T00:25:35.027Z,6.95
2017-02-20T00:26:35.007Z,6.99
2017-02-20T00:27:34.989Z,7.01
2017-02-20T00:28:34.968Z,7.05
2017-02-20T00:29:34.958Z,6.97
2017-02-20T00:30:34.932Z,7.09
2017-02-20T00:31:34.911Z,7.08
2017-02-20T00:32:34.901Z,7.12
2017-02-20T00:33:34.875Z,7.07
2017-02-20T00:34:34.858Z,7.17
2017-02-20T00:35:35.052Z,7.12
2017-02-20T00:36:34.839Z,7.17
2017-02-20T00:37:34.820Z,7.19
2017-02-20T00:38:34.796Z,7.22
2017-02-20T00:39:34.780Z,7.19
2017-02-20T00:40:34.762Z,7.23
2017-02-20T00:41:34.746Z,7.17
2017-02-20T00:42:34.709Z,7.17
2017-02-20T00:43:34.700Z,7.15
2017-02-20T00:44:34.688Z,7.16
2017-02-20T00:45:34.687Z,7.23
2017-02-20T00:46:34.637Z,7.22
2017-02-20T00:47:34.619Z,7.29
2017-02-20T00:48:34.616Z,7.23
2017-02-20T00:49:34.595Z,7.32
2017-02-20T00:50:34.578Z,7.26
2017-02-20T00:51:34.586Z,7.29
2017-02-20T00:52:34.536Z,7.34
2017-02-20T00:53:34.515Z,7.35
2017-02-20T00:54:34.100Z,7.35
2017-02-20T00:55:34.089Z,7.35
2017-02-20T00:56:34.465Z,7.37
2017-02-20T00:57:34.464Z,7.35
2017-02-20T00:58:34.482Z,7.4
2017-02-20T00:59:34.424Z,7.45
2017-02-20T01:00:34.408Z,7.4
2017-02-20T01:01:34.382Z,7.47
2017-02-20T01:02:34.388Z,7.5
2017-02-20T01:03:34.329Z,7.44
2017-02-20T01:04:33.933Z,7.49
2017-02-20T01:05:34.299Z,7.42
2017-02-20T01:06:34.273Z,7.47
2017-02-20T01:07:34.279Z,7.53
2017-02-20T01:08:34.260Z,7.56
2017-02-20T01:09:34.238Z,7.6
2017-02-20T01:10:34.214Z,7.63
2017-02-20T01:11:34.196Z,7.62
2017-02-20T01:12:34.171Z,7.63
2017-02-20T01:13:34.161Z,7.6
2017-02-20T01:14:34.143Z,7.6
2017-02-20T01:15:34.127Z,7.6
2017-02-20T01:16:34.098Z,7.62
2017-02-20T01:17:34.094Z,7.56
2017-02-20T01:18:34.064Z,7.6
2017-02-20T01:19:34.049Z,7.6
2017-02-20T01:20:34.026Z,7.66
2017-02-20T01:21:34.040Z,7.53
2017-02-20T01:22:34.005Z,7.63
2017-02-20T01:23:33.984Z,7.49
2017-02-20T01:24:33.948Z,7.6
2017-02-20T01:25:33.545Z,7.56
2017-02-20T01:26:33.522Z,7.6
2017-02-20T01:27:33.909Z,7.53
2017-02-20T01:28:33.874Z,7.62
2017-02-20T01:29:33.873Z,7.62
2017-02-20T01:30:33.842Z,7.66
2017-02-20T01:31:33.832Z,7.63
2017-02-20T01:32:33.820Z,7.6
2017-02-20T01:33:33.798Z,7.63
2017-02-20T01:34:33.782Z,7.58
2017-02-20T01:35:33.750Z,7.63
2017-02-20T01:36:33.741Z,7.63
2017-02-20T01:37:33.721Z,7.67
2017-02-20T01:38:33.707Z,7.67
2017-02-20T01:39:33.696Z,7.67
2017-02-20T01:40:33.671Z,7.59
2017-02-20T01:41:33.646Z,7.67
2017-02-20T01:42:33.627Z,7.66
2017-02-20T01:43:33.217Z,7.67
2017-02-20T01:44:33.193Z,7.71
2017-02-20T01:45:33.602Z,7.71
2017-02-20T01:46:33.559Z,7.71
2017-02-20T01:47:33.543Z,7.71
2017-02-20T01:48:33.520Z,7.72
2017-02-20T01:49:33.497Z,7.67
2017-02-20T01:50:33.487Z,7.66
2017-02-20T01:51:33.490Z,7.69
2017-02-20T01:52:33.443Z,7.75
2017-02-20T01:53:33.429Z,7.72
2017-02-20T01:54:33.427Z,7.67
2017-02-20T01:55:33.408Z,7.75
2017-02-20T01:56:33.398Z,7.63
2017-02-20T01:57:33.365Z,7.71
2017-02-20T01:58:33.339Z,7.66
2017-02-20T01:59:33.319Z,7.71
2017-02-20T02:00:33.303Z,7.69
2017-02-20T02:01:33.292Z,7.63
2017-02-20T02:02:33.271Z,7.62
2017-02-20T02:03:33.241Z,7.67
2017-02-20T02:04:33.250Z,7.66
2017-02-20T02:05:33.212Z,7.79
2017-02-20T02:06:33.184Z,7.74
2017-02-20T02:07:33.169Z,7.69
2017-02-20T02:08:33.148Z,7.72
2017-02-20T02:09:33.143Z,7.66
2017-02-20T02:10:33.120Z,7.71
2017-02-20T02:11:33.102Z,7.71
2017-02-20T02:12:33.078Z,7.67
2017-02-20T02:13:33.058Z,7.71
2017-02-20T02:14:33.045Z,7.74
2017-02-20T02:15:33.024Z,7.67
2017-02-20T02:16:33.010Z,7.66
2017-02-20T02:17:33.030Z,7.63
2017-02-20T02:18:32.983Z,7.67
2017-02-20T02:19:32.956Z,7.67
2017-02-20T02:20:32.946Z,7.69
2017-02-20T02:21:32.944Z,7.66
2017-02-20T02:22:32.924Z,7.6
2017-02-20T02:23:32.881Z,7.62
2017-02-20T02:24:32.871Z,7.62
2017-02-20T02:25:32.448Z,7.63
2017-02-20T02:26:32.429Z,7.63
2017-02-20T02:27:32.815Z,7.6
2017-02-20T02:28:32.795Z,7.56
2017-02-20T02:29:32.392Z,7.6
2017-02-20T02:30:32.765Z,7.63
2017-02-20T02:31:32.750Z,7.63
2017-02-20T02:32:32.733Z,7.63
2017-02-20T02:33:32.724Z,7.62
2017-02-20T02:34:32.685Z,7.62
2017-02-20T02:35:32.867Z,7.72
2017-02-20T02:36:32.661Z,7.59
2017-02-20T02:37:32.674Z,7.62
2017-02-20T02:38:32.620Z,7.67
2017-02-20T02:39:32.592Z,7.66
2017-02-20T02:40:31.780Z,7.66
2017-02-20T02:41:32.622Z,7.6
2017-02-20T02:42:32.553Z,7.66
2017-02-20T02:43:32.563Z,7.69
2017-02-20T02:44:32.526Z,7.62
2017-02-20T02:45:32.487Z,7.67
2017-02-20T02:46:32.472Z,7.67
2017-02-20T02:47:32.461Z,7.71
2017-02-20T02:48:32.445Z,7.66
2017-02-20T02:49:32.412Z,7.66
2017-02-20T02:50:32.400Z,7.67
2017-02-20T02:51:32.383Z,7.66
2017-02-20T02:52:32.369Z,7.67
2017-02-20T02:53:32.345Z,7.69
2017-02-20T02:54:31.945Z,7.62
2017-02-20T02:55:32.308Z,7.72
2017-02-20T02:56:32.290Z,7.69
2017-02-20T02:57:32.275Z,7.67
2017-02-20T02:58:32.265Z,7.67
2017-02-20T02:59:32.253Z,7.71
2017-02-20T03:00:32.216Z,7.67
2017-02-20T03:01:32.206Z,7.67
2017-02-20T03:02:32.190Z,7.67
2017-02-20T03:03:32.177Z,7.74
2017-02-20T03:04:32.150Z,7.71
2017-02-20T03:05:32.145Z,7.71
2017-02-20T03:06:32.111Z,7.66
2017-02-20T03:07:32.090Z,7.67
2017-02-20T03:08:32.075Z,7.72
2017-02-20T03:09:32.057Z,7.6
2017-02-20T03:10:32.040Z,7.69
2017-02-20T03:11:32.022Z,7.71
2017-02-20T03:12:32.002Z,7.66
2017-02-20T03:13:31.986Z,7.6
2017-02-20T03:14:31.978Z,7.71
2017-02-20T03:15:31.948Z,7.69
2017-02-20T03:16:31.536Z,7.72
2017-02-20T03:17:31.965Z,7.79
2017-02-20T03:18:31.901Z,7.78
2017-02-20T03:19:31.895Z,7.81
2017-02-20T03:20:31.863Z,7.79
2017-02-20T03:21:31.843Z,7.75
2017-02-20T03:22:31.824Z,7.77
2017-02-20T03:23:31.806Z,7.72
2017-02-20T03:24:31.794Z,7.74
2017-02-20T03:25:31.773Z,7.74
2017-02-20T03:26:31.760Z,7.81
2017-02-20T03:27:31.737Z,7.77
2017-02-20T03:28:31.732Z,7.78
2017-02-20T03:29:31.705Z,7.69
2017-02-20T03:30:31.704Z,7.79
2017-02-20T03:31:31.678Z,7.81
2017-02-20T03:32:31.685Z,7.74
2017-02-20T03:33:31.637Z,7.71
2017-02-20T03:34:31.620Z,7.77
2017-02-20T03:35:31.599Z,7.77
2017-02-20T03:36:31.579Z,7.71
2017-02-20T03:37:31.569Z,7.75
2017-02-20T03:38:31.559Z,7.81
2017-02-20T03:39:31.528Z,7.71
2017-02-20T03:40:31.501Z,7.75
2017-02-20T03:41:31.486Z,7.77
2017-02-20T03:42:31.471Z,7.78
2017-02-20T03:43:31.461Z,7.87
2017-02-20T03:44:31.440Z,7.87
2017-02-20T03:45:31.437Z,7.75
2017-02-20T03:46:31.012Z,7.84
2017-02-20T03:47:31.387Z,7.87
2017-02-20T03:48:31.367Z,7.87
2017-02-20T03:49:31.356Z,7.82
2017-02-20T03:50:31.341Z,7.81
2017-02-20T03:51:31.357Z,7.89
2017-02-20T03:52:31.307Z,7.89
2017-02-20T03:53:31.290Z,7.9
2017-02-20T03:54:30.869Z,7.82
2017-02-20T03:55:31.251Z,7.87
2017-02-20T03:56:31.234Z,7.85
2017-02-20T03:57:31.210Z,7.79
2017-02-20T03:58:31.190Z,7.87
2017-02-20T03:59:31.185Z,7.85
2017-02-20T04:00:30.762Z,7.84
2017-02-20T04:01:31.144Z,7.82
2017-02-20T04:02:31.124Z,7.9
2017-02-20T04:03:31.118Z,7.82
2017-02-20T04:04:31.088Z,7.93
2017-02-20T04:05:31.064Z,7.9
2017-02-20T04:06:31.049Z,7.84
2017-02-20T04:07:31.031Z,7.9
2017-02-20T04:08:31.010Z,7.94
2017-02-20T04:09:31.004Z,7.84
2017-02-20T04:10:30.607Z,7.92
2017-02-20T04:11:30.973Z,7.89
2017-02-20T04:12:30.944Z,7.93
2017-02-20T04:13:30.925Z,7.92
2017-02-20T04:14:30.530Z,7.94
2017-02-20T04:15:30.900Z,7.92
2017-02-20T04:16:30.870Z,7.97
2017-02-20T04:17:30.883Z,7.93
2017-02-20T04:18:30.847Z,7.94
2017-02-20T04:19:30.820Z,7.96
2017-02-20T04:20:30.804Z,7.9
2017-02-20T04:21:30.861Z,7.92
2017-02-20T04:22:30.792Z,7.97
2017-02-20T04:23:29.966Z,7.99
2017-02-20T04:24:30.348Z,7.94
2017-02-20T04:25:30.710Z,8
2017-02-20T04:26:30.315Z,7.96
2017-02-20T04:27:30.677Z,7.96
2017-02-20T04:28:30.664Z,7.97
2017-02-20T04:29:30.661Z,7.99
2017-02-20T04:30:30.628Z,8.04
2017-02-20T04:31:30.209Z,8.04
2017-02-20T04:32:30.591Z,8
2017-02-20T04:33:30.577Z,7.96
2017-02-20T04:34:30.558Z,8.02
2017-02-20T04:35:30.740Z,8.04
2017-02-20T04:36:30.532Z,8.03
2017-02-20T04:37:30.500Z,8.04
2017-02-20T04:38:30.493Z,8.11
2017-02-20T04:39:30.475Z,8.11
2017-02-20T04:40:30.065Z,8.03
2017-02-20T04:41:30.467Z,8.08
2017-02-20T04:42:30.412Z,8.07
2017-02-20T04:43:30.398Z,8.11
2017-02-20T04:44:30.379Z,8.07
2017-02-20T04:45:30.364Z,8.11
2017-02-20T04:46:30.356Z,8.15
2017-02-20T04:47:30.337Z,8.14
2017-02-20T04:48:30.315Z,8.1
2017-02-20T04:49:29.515Z,8.14
2017-02-20T04:50:29.877Z,8.11
2017-02-20T04:51:30.260Z,8.15
2017-02-20T04:52:30.244Z,8.17
2017-02-20T04:53:30.228Z,8.15
2017-02-20T04:54:29.802Z,8.11
2017-02-20T04:55:30.186Z,8.17
2017-02-20T04:56:30.163Z,8.14
2017-02-20T04:57:30.142Z,8.12
2017-02-20T04:58:29.771Z,8.2
2017-02-20T04:59:29.724Z,8.2
2017-02-20T05:00:30.089Z,8.12
2017-02-20T05:01:30.076Z,8.17
2017-02-20T05:02:30.053Z,8.15
2017-02-20T05:03:29.644Z,8.17
2017-02-20T05:04:29.624Z,8.21
2017-02-20T05:05:30.006Z,8.15
2017-02-20T05:06:29.986Z,8.25
2017-02-20T05:07:29.979Z,8.12
2017-02-20T05:08:29.957Z,8.25
2017-02-20T05:09:29.940Z,8.15
2017-02-20T05:10:29.914Z,8.21
2017-02-20T05:11:29.909Z,8.17
2017-02-20T05:12:29.910Z,8.2
2017-02-20T05:13:29.911Z,8.17
2017-02-20T05:14:29.854Z,8.21
2017-02-20T05:15:29.822Z,8.2
2017-02-20T05:16:29.806Z,8.18
2017-02-20T05:17:29.798Z,8.21
2017-02-20T05:18:29.778Z,8.2
2017-02-20T05:19:29.761Z,8.18
2017-02-20T05:20:29.746Z,8.21
2017-02-20T05:21:29.735Z,8.21
2017-02-20T05:22:29.713Z,8.2
2017-02-20T05:23:29.685Z,8.2
2017-02-20T05:24:29.666Z,8.28
2017-02-20T05:25:29.656Z,8.26
2017-02-20T05:26:29.639Z,8.26
2017-02-20T05:27:29.221Z,8.26
2017-02-20T05:28:29.593Z,8.33
2017-02-20T05:29:29.581Z,8.32
2017-02-20T05:30:29.571Z,8.32
2017-02-20T05:31:29.556Z,8.22
2017-02-20T05:32:29.527Z,8.29
2017-02-20T05:33:29.505Z,8.3
2017-02-20T05:34:29.089Z,8.2
2017-02-20T05:35:29.481Z,8.18
2017-02-20T05:36:29.456Z,8.3
2017-02-20T05:37:29.445Z,8.2
2017-02-20T05:38:29.420Z,8.25
2017-02-20T05:39:29.413Z,8.28
2017-02-20T05:40:29.387Z,8.22
2017-02-20T05:41:28.973Z,8.15
2017-02-20T05:42:29.397Z,8.12
2017-02-20T05:43:29.341Z,8.14
2017-02-20T05:44:29.307Z,8.21
2017-02-20T05:45:28.915Z,8.21
2017-02-20T05:46:29.301Z,8.15
2017-02-20T05:47:29.261Z,8.07
2017-02-20T05:48:29.251Z,8.04
2017-02-20T05:49:29.238Z,8.08
2017-02-20T05:50:29.219Z,8.02
2017-02-20T05:51:29.186Z,8.07
2017-02-20T05:52:29.173Z,8.11
2017-02-20T05:53:29.154Z,8.08
2017-02-20T05:54:28.376Z,8.1
2017-02-20T05:55:29.146Z,8.1
2017-02-20T05:56:29.112Z,8.04
2017-02-20T05:57:28.724Z,8.03
2017-02-20T05:58:29.076Z,8.04
2017-02-20T05:59:28.665Z,8.04
2017-02-20T06:00:29.052Z,8.03
2017-02-20T06:01:28.627Z,8
2017-02-20T06:02:28.999Z,8.04
2017-02-20T06:03:28.585Z,7.99
2017-02-20T06:04:28.967Z,7.97
2017-02-20T06:05:28.937Z,7.96
2017-02-20T06:06:28.926Z,7.99
2017-02-20T06:07:28.901Z,7.96
2017-02-20T06:08:28.907Z,8.02
2017-02-20T06:09:28.877Z,8.04
2017-02-20T06:10:28.878Z,7.97
2017-02-20T06:11:28.436Z,8.02
2017-02-20T06:12:28.826Z,8.07
2017-02-20T06:13:28.800Z,7.99
2017-02-20T06:14:28.781Z,8.03
2017-02-20T06:15:28.767Z,8.03
2017-02-20T06:16:28.346Z,8.02
2017-02-20T06:17:28.727Z,8.04
2017-02-20T06:18:28.716Z,8.07
2017-02-20T06:19:28.687Z,8.02
2017-02-20T06:20:28.672Z,8.02
2017-02-20T06:21:28.674Z,8.12
2017-02-20T06:22:28.642Z,8.11
2017-02-20T06:23:28.640Z,8.07
2017-02-20T06:24:28.612Z,8.1
2017-02-20T06:25:28.577Z,8.14
2017-02-20T06:26:28.576Z,8.07
2017-02-20T06:27:28.559Z,8.11
2017-02-20T06:28:28.524Z,8.11
2017-02-20T06:29:28.510Z,8.14
2017-02-20T06:30:28.529Z,8.2
2017-02-20T06:31:28.470Z,8.14
2017-02-20T06:32:28.462Z,8.15
2017-02-20T06:33:28.439Z,8.11
2017-02-20T06:34:28.416Z,8.15
2017-02-20T06:35:28.609Z,8.14
2017-02-20T06:36:28.402Z,8.14
2017-02-20T06:37:28.382Z,8.14
2017-02-20T06:38:28.362Z,8.15
2017-02-20T06:39:28.335Z,8.17
2017-02-20T06:40:27.927Z,8.15
2017-02-20T06:41:28.299Z,8.11
2017-02-20T06:42:28.288Z,8.15
2017-02-20T06:43:28.267Z,8.18
2017-02-20T06:44:28.256Z,8.17
2017-02-20T06:45:28.240Z,8.25
2017-02-20T06:46:28.215Z,8.21
2017-02-20T06:47:28.196Z,8.28
2017-02-20T06:48:28.193Z,8.28
2017-02-20T06:49:28.159Z,8.25
2017-02-20T06:50:28.151Z,8.25
2017-02-20T06:51:28.122Z,8.18
2017-02-20T06:52:27.705Z,8.28
2017-02-20T06:53:28.095Z,8.2
2017-02-20T06:54:27.663Z,8.17
2017-02-20T06:55:28.047Z,8.12
2017-02-20T06:56:28.035Z,8.15
2017-02-20T06:57:28.024Z,8.22
2017-02-20T06:58:27.996Z,8.11
2017-02-20T06:59:27.582Z,8.11
2017-02-20T07:00:27.962Z,8.21
2017-02-20T07:01:27.948Z,8.1
2017-02-20T07:02:27.938Z,8.17
2017-02-20T07:03:27.917Z,8.15
2017-02-20T07:04:27.884Z,8.25
2017-02-20T07:05:27.869Z,8.28
2017-02-20T07:06:27.860Z,8.18
2017-02-20T07:07:27.841Z,8.14
2017-02-20T07:08:27.822Z,8.28
2017-02-20T07:09:27.797Z,8.18
2017-02-20T07:10:27.784Z,8.21
2017-02-20T07:11:27.759Z,8.22
2017-02-20T07:12:27.354Z,8.25
2017-02-20T07:13:27.727Z,8.2
2017-02-20T07:14:27.722Z,8.22
2017-02-20T07:15:27.694Z,8.32
2017-02-20T07:16:27.279Z,8.32
2017-02-20T07:17:27.658Z,8.28
2017-02-20T07:18:27.660Z,8.3
2017-02-20T07:19:27.625Z,8.35
2017-02-20T07:20:27.614Z,8.2
2017-02-20T07:21:27.599Z,8.33
2017-02-20T07:22:27.575Z,8.37
2017-02-20T07:23:27.568Z,8.33
2017-02-20T07:24:27.545Z,8.37
2017-02-20T07:25:27.522Z,8.29
2017-02-20T07:26:27.494Z,8.29
2017-02-20T07:27:27.480Z,8.29
2017-02-20T07:28:27.464Z,8.29
2017-02-20T07:29:27.449Z,8.32
2017-02-20T07:30:27.422Z,8.39
2017-02-20T07:31:27.421Z,8.35
2017-02-20T07:32:27.010Z,8.3
2017-02-20T07:33:27.384Z,8.37
2017-02-20T07:34:27.359Z,8.35
2017-02-20T07:35:27.349Z,8.32
2017-02-20T07:36:27.333Z,8.4
2017-02-20T07:37:27.303Z,8.42
2017-02-20T07:38:27.300Z,8.36
2017-02-20T07:39:26.883Z,8.39
2017-02-20T07:40:27.258Z,8.4
2017-02-20T07:41:27.245Z,8.45
2017-02-20T07:42:26.865Z,8.47
2017-02-20T07:43:27.197Z,8.48
2017-02-20T07:44:27.182Z,8.39
2017-02-20T07:45:27.166Z,8.45
2017-02-20T07:46:27.154Z,8.42
2017-02-20T07:47:27.140Z,8.47
2017-02-20T07:48:27.107Z,8.5
2017-02-20T07:49:27.092Z,8.4
2017-02-20T07:50:27.091Z,8.4
2017-02-20T07:51:27.060Z,8.47
2017-02-20T07:52:27.049Z,8.48
2017-02-20T07:53:26.631Z,8.54
2017-02-20T07:54:26.627Z,8.53
2017-02-20T07:55:26.593Z,8.58
2017-02-20T07:56:26.971Z,8.57
2017-02-20T07:57:26.558Z,8.55
2017-02-20T07:58:26.940Z,8.54
2017-02-20T07:59:26.531Z,8.57
2017-02-20T08:00:26.512Z,8.55
2017-02-20T08:01:26.088Z,8.55
2017-02-20T08:02:26.466Z,8.55
2017-02-20T08:03:26.470Z,8.53
2017-02-20T08:04:26.827Z,8.54
2017-02-20T08:05:26.819Z,8.53
2017-02-20T08:06:26.804Z,8.55
2017-02-20T08:07:26.782Z,8.51
2017-02-20T08:08:26.766Z,8.55
2017-02-20T08:09:26.741Z,8.54
2017-02-20T08:10:26.737Z,8.55
2017-02-20T08:11:26.705Z,8.6
2017-02-20T08:12:26.709Z,8.55
2017-02-20T08:13:26.714Z,8.57
2017-02-20T08:14:26.677Z,8.58
2017-02-20T08:15:26.249Z,8.53
2017-02-20T08:16:26.650Z,8.58
2017-02-20T08:17:26.617Z,8.55
2017-02-20T08:18:26.611Z,8.58
2017-02-20T08:19:26.579Z,8.58
2017-02-20T08:20:26.546Z,8.54
2017-02-20T08:21:26.155Z,8.54
2017-02-20T08:22:26.523Z,8.55
2017-02-20T08:23:26.509Z,8.54
2017-02-20T08:24:26.513Z,8.58
2017-02-20T08:25:26.477Z,8.63
2017-02-20T08:26:26.060Z,8.54
2017-02-20T08:27:26.436Z,8.55
2017-02-20T08:28:26.421Z,8.58
2017-02-20T08:29:26.403Z,8.62
2017-02-20T08:30:26.381Z,8.58
2017-02-20T08:31:26.373Z,8.62
2017-02-20T08:32:25.954Z,8.63
2017-02-20T08:33:26.324Z,8.63
2017-02-20T08:34:25.917Z,8.63
2017-02-20T08:35:26.501Z,8.65
2017-02-20T08:36:26.292Z,8.72
2017-02-20T08:37:26.267Z,8.54
2017-02-20T08:38:26.254Z,8.65
2017-02-20T08:39:26.221Z,8.66
2017-02-20T08:40:26.213Z,8.66
2017-02-20T08:41:26.200Z,8.69
2017-02-20T08:42:26.182Z,8.71
2017-02-20T08:43:26.158Z,8.65
2017-02-20T08:44:26.142Z,8.69
2017-02-20T08:45:26.129Z,8.72
2017-02-20T08:46:26.110Z,8.69
2017-02-20T08:47:26.096Z,8.72
2017-02-20T08:48:26.074Z,8.69
2017-02-20T08:49:25.663Z,8.71
2017-02-20T08:50:26.027Z,8.72
2017-02-20T08:51:25.614Z,8.68
2017-02-20T08:52:26.010Z,8.71
2017-02-20T08:53:25.990Z,8.73
2017-02-20T08:54:25.971Z,8.73
2017-02-20T08:55:25.550Z,8.73
2017-02-20T08:56:25.925Z,8.73
2017-02-20T08:57:25.907Z,8.71
2017-02-20T08:58:25.496Z,8.75
2017-02-20T08:59:25.478Z,8.73
2017-02-20T09:00:25.857Z,8.72
2017-02-20T09:01:25.856Z,8.72
2017-02-20T09:02:25.826Z,8.73
2017-02-20T09:03:25.832Z,8.69
2017-02-20T09:04:25.387Z,8.71
2017-02-20T09:05:25.766Z,8.75
2017-02-20T09:06:25.363Z,8.75
2017-02-20T09:07:25.731Z,8.81
2017-02-20T09:08:25.314Z,8.73
2017-02-20T09:09:25.698Z,8.81
2017-02-20T09:10:25.286Z,8.87
2017-02-20T09:11:25.271Z,8.81
2017-02-20T09:12:25.248Z,8.84
2017-02-20T09:13:25.630Z,8.78
2017-02-20T09:14:25.615Z,8.83
2017-02-20T09:15:25.593Z,8.91
2017-02-20T09:16:25.589Z,8.81
2017-02-20T09:17:25.574Z,8.86
2017-02-20T09:18:25.556Z,8.86
2017-02-20T09:19:25.535Z,8.96
2017-02-20T09:20:25.508Z,8.91
2017-02-20T09:21:25.497Z,8.91
2017-02-20T09:22:25.470Z,8.94
2017-02-20T09:23:25.461Z,8.91
2017-02-20T09:24:25.443Z,8.93
2017-02-20T09:25:25.036Z,8.93
2017-02-20T09:26:25.404Z,8.96
2017-02-20T09:27:24.995Z,8.93
2017-02-20T09:28:25.373Z,8.93
2017-02-20T09:29:24.957Z,8.96
2017-02-20T09:30:25.331Z,8.97
2017-02-20T09:31:25.317Z,8.97
2017-02-20T09:32:25.300Z,8.93
2017-02-20T09:33:25.280Z,9.02
2017-02-20T09:34:25.266Z,9.01
2017-02-20T09:35:25.261Z,8.96
2017-02-20T09:36:25.234Z,9.05
2017-02-20T09:37:25.220Z,9.05
2017-02-20T09:38:25.200Z,9.06
2017-02-20T09:39:24.792Z,9.13
2017-02-20T09:40:25.163Z,9.16
2017-02-20T09:41:25.166Z,9.1
2017-02-20T09:42:25.142Z,9.09
2017-02-20T09:43:25.136Z,9.09
2017-02-20T09:44:24.717Z,9.1
2017-02-20T09:45:25.312Z,9.15
2017-02-20T09:46:25.072Z,9.15
2017-02-20T09:47:25.044Z,9.15
2017-02-20T09:48:25.026Z,9.15
2017-02-20T09:49:25.011Z,9.16
2017-02-20T09:50:25.001Z,9.16
2017-02-20T09:51:24.987Z,9.15
2017-02-20T09:52:24.960Z,9.12
2017-02-20T09:53:24.954Z,9.16
2017-02-20T09:54:24.930Z,9.2
2017-02-20T09:55:24.913Z,9.18
2017-02-20T09:56:24.889Z,9.24
2017-02-20T09:57:24.872Z,9.21
2017-02-20T09:58:24.853Z,9.13
2017-02-20T09:59:24.448Z,9.25
2017-02-20T10:00:24.822Z,9.18
2017-02-20T10:01:24.805Z,9.2
2017-02-20T10:02:24.800Z,9.21
2017-02-20T10:03:24.376Z,9.2
2017-02-20T10:04:24.775Z,9.27
2017-02-20T10:05:24.348Z,9.18
2017-02-20T10:06:24.735Z,9.15
2017-02-20T10:07:24.311Z,9.15
2017-02-20T10:08:24.691Z,9.18
2017-02-20T10:09:24.674Z,9.18
2017-02-20T10:10:24.660Z,9.15
2017-02-20T10:11:24.241Z,9.15
2017-02-20T10:12:24.614Z,9.1
2017-02-20T10:13:24.601Z,9.18
2017-02-20T10:14:24.587Z,9.15
2017-02-20T10:15:24.578Z,9.15
2017-02-20T10:16:24.553Z,9.1
2017-02-20T10:17:24.145Z,9.06
2017-02-20T10:18:24.519Z,9.13
2017-02-20T10:19:24.101Z,9.02
2017-02-20T10:20:24.488Z,9.09
2017-02-20T10:21:24.063Z,9.13
2017-02-20T10:22:24.057Z,9.04
2017-02-20T10:23:24.435Z,9.06
2017-02-20T10:24:24.413Z,9.1
2017-02-20T10:25:24.398Z,9.09
2017-02-20T10:26:24.376Z,9.15
2017-02-20T10:27:24.373Z,9.16
2017-02-20T10:28:24.355Z,9.12
2017-02-20T10:29:24.334Z,9.15
2017-02-20T10:30:24.319Z,9.16
2017-02-20T10:31:24.305Z,9.2
2017-02-20T10:32:24.282Z,9.15
2017-02-20T10:33:24.270Z,9.13
2017-02-20T10:34:24.253Z,9.2
2017-02-20T10:35:24.249Z,9.2
2017-02-20T10:36:24.223Z,9.27
2017-02-20T10:37:24.192Z,9.23
2017-02-20T10:38:24.197Z,9.2
2017-02-20T10:39:24.168Z,9.27
2017-02-20T10:40:24.138Z,9.2
2017-02-20T10:41:24.127Z,9.18
2017-02-20T10:42:24.111Z,9.21
2017-02-20T10:43:24.097Z,9.23
2017-02-20T10:44:24.088Z,9.24
2017-02-20T10:45:24.051Z,9.3
2017-02-20T10:46:24.070Z,9.27
2017-02-20T10:47:23.630Z,9.25
2017-02-20T10:48:24.006Z,9.27
2017-02-20T10:49:24.000Z,9.27
2017-02-20T10:50:23.974Z,9.25
2017-02-20T10:51:23.983Z,9.4
2017-02-20T10:52:23.936Z,9.34
2017-02-20T10:53:23.921Z,9.4
2017-02-20T10:54:23.906Z,9.38
2017-02-20T10:55:23.488Z,9.38
2017-02-20T10:56:23.489Z,9.38
2017-02-20T10:57:23.061Z,9.43
2017-02-20T10:58:23.845Z,9.35
2017-02-20T10:59:23.831Z,9.4
2017-02-20T11:00:23.805Z,9.39
2017-02-20T11:01:23.796Z,9.35
2017-02-20T11:02:23.380Z,9.34
2017-02-20T11:03:23.754Z,9.38
2017-02-20T11:04:23.736Z,9.35
2017-02-20T11:05:23.716Z,9.38
2017-02-20T11:06:23.707Z,9.4
2017-02-20T11:07:23.692Z,9.4
2017-02-20T11:08:23.664Z,9.4
2017-02-20T11:09:23.660Z,9.38
2017-02-20T11:10:23.273Z,9.4
2017-02-20T11:11:23.249Z,9.38
2017-02-20T11:12:23.226Z,9.4
2017-02-20T11:13:23.587Z,9.48
2017-02-20T11:14:23.171Z,9.39
2017-02-20T11:15:23.555Z,9.45
2017-02-20T11:16:23.152Z,9.4
2017-02-20T11:17:23.514Z,9.42
2017-02-20T11:18:23.104Z,9.43
2017-02-20T11:19:23.497Z,9.4
2017-02-20T11:20:23.464Z,9.39
2017-02-20T11:21:23.444Z,9.46
2017-02-20T11:22:23.453Z,9.4
2017-02-20T11:23:23.415Z,9.46
2017-02-20T11:24:23.405Z,9.42
2017-02-20T11:25:23.395Z,9.4
2017-02-20T11:26:22.980Z,9.39
2017-02-20T11:27:23.354Z,9.42
2017-02-20T11:28:23.345Z,9.43
2017-02-20T11:29:22.928Z,9.45
2017-02-20T11:30:23.320Z,9.4
2017-02-20T11:31:22.881Z,9.57
2017-02-20T11:32:23.265Z,9.45
2017-02-20T11:33:23.246Z,9.43
2017-02-20T11:34:23.276Z,9.48
2017-02-20T11:35:23.231Z,9.46
2017-02-20T11:36:23.207Z,9.53
2017-02-20T11:37:23.182Z,9.58
2017-02-20T11:38:23.165Z,9.56
2017-02-20T11:39:22.756Z,9.53
2017-02-20T11:40:23.143Z,9.53
2017-02-20T11:41:23.122Z,9.57
2017-02-20T11:42:23.102Z,9.56
2017-02-20T11:43:22.683Z,9.58
2017-02-20T11:44:22.666Z,9.61
2017-02-20T11:45:23.044Z,9.61
2017-02-20T11:46:22.638Z,9.6
2017-02-20T11:47:22.619Z,9.68
2017-02-20T11:48:23.001Z,9.71
2017-02-20T11:49:22.985Z,9.7
2017-02-20T11:50:22.963Z,9.71
2017-02-20T11:51:22.571Z,9.7
2017-02-20T11:52:22.534Z,9.73
2017-02-20T11:53:22.539Z,9.73
2017-02-20T11:54:22.501Z,9.7
2017-02-20T11:55:22.878Z,9.68
2017-02-20T11:56:22.881Z,9.76
2017-02-20T11:57:22.856Z,9.78
2017-02-20T11:58:22.835Z,9.67
2017-02-20T11:59:22.853Z,9.68
2017-02-20T12:00:22.806Z,9.58
2017-02-20T12:01:22.799Z,9.6
2017-02-20T12:02:22.786Z,9.63
2017-02-20T12:03:22.748Z,9.66
2017-02-20T12:04:22.747Z,9.52
2017-02-20T12:05:22.716Z,9.6
2017-02-20T12:06:22.700Z,9.64
2017-02-20T12:07:22.688Z,9.61
2017-02-20T12:08:22.711Z,9.64
2017-02-20T12:09:22.296Z,9.66
2017-02-20T12:10:22.650Z,9.64
2017-02-20T12:11:22.635Z,9.6
2017-02-20T12:12:22.297Z,9.63
2017-02-20T12:13:22.592Z,9.58
2017-02-20T12:14:22.571Z,9.58
2017-02-20T12:15:22.567Z,9.58
2017-02-20T12:16:22.533Z,9.53
2017-02-20T12:17:22.518Z,9.53
2017-02-20T12:18:22.112Z,9.52
2017-02-20T12:19:22.497Z,9.53
2017-02-20T12:20:22.478Z,9.56
2017-02-20T12:21:22.060Z,9.56
2017-02-20T12:22:22.042Z,9.56
2017-02-20T12:23:22.418Z,9.57
2017-02-20T12:24:22.019Z,9.53
2017-02-20T12:25:22.395Z,9.64
2017-02-20T12:26:22.386Z,9.66
2017-02-20T12:27:21.963Z,9.58
2017-02-20T12:28:22.338Z,9.66
2017-02-20T12:29:22.318Z,9.61
2017-02-20T12:30:22.322Z,9.64
2017-02-20T12:31:22.304Z,9.63
2017-02-20T12:32:22.278Z,9.63
2017-02-20T12:33:22.268Z,9.66
2017-02-20T12:34:22.240Z,9.64
2017-02-20T12:35:22.238Z,9.61
2017-02-20T12:36:22.401Z,9.63
2017-02-20T12:37:21.800Z,9.58
2017-02-20T12:38:22.163Z,9.66
2017-02-20T12:39:22.167Z,9.61
2017-02-20T12:40:22.148Z,9.61
2017-02-20T12:41:22.126Z,9.63
2017-02-20T12:42:22.138Z,9.63
2017-02-20T12:43:22.085Z,9.64
2017-02-20T12:44:22.089Z,9.71
2017-02-20T12:45:22.059Z,9.64
2017-02-20T12:46:22.043Z,9.63
2017-02-20T12:47:22.020Z,9.6
2017-02-20T12:48:22.007Z,9.61
2017-02-20T12:49:21.988Z,9.61
2017-02-20T12:50:21.976Z,9.58
2017-02-20T12:51:21.959Z,9.67
2017-02-20T12:52:21.934Z,9.64
2017-02-20T12:53:21.926Z,9.58
2017-02-20T12:54:21.904Z,9.63
2017-02-20T12:55:21.886Z,9.67
2017-02-20T12:56:21.912Z,9.63
2017-02-20T12:57:21.462Z,9.63
2017-02-20T12:58:21.439Z,9.67
2017-02-20T12:59:21.846Z,9.6
2017-02-20T13:00:21.821Z,9.58
2017-02-20T13:01:21.789Z,9.64
2017-02-20T13:02:21.781Z,9.58
2017-02-20T13:03:21.762Z,9.61
2017-02-20T13:04:21.339Z,9.67
2017-02-20T13:05:21.712Z,9.67
2017-02-20T13:06:21.713Z,9.63
2017-02-20T13:07:21.718Z,9.64
2017-02-20T13:08:21.680Z,9.68
2017-02-20T13:09:21.659Z,9.61
2017-02-20T13:10:21.633Z,9.67
2017-02-20T13:11:21.633Z,9.66
2017-02-20T13:12:21.606Z,9.64
2017-02-20T13:13:21.584Z,9.58
2017-02-20T13:14:21.585Z,9.61
2017-02-20T13:15:21.561Z,9.58
2017-02-20T13:16:21.140Z,9.64
2017-02-20T13:17:21.539Z,9.67
2017-02-20T13:18:21.499Z,9.68
2017-02-20T13:19:21.476Z,9.7
2017-02-20T13:20:21.468Z,9.71
2017-02-20T13:21:21.444Z,9.71